Time;durP1;ratioP1;P1;durP2;ratioP2;P2;SDS_P1;SDS_P2;PMS_P1;PMS_P2;Temp;Humidity;BMP_temperature;BMP_pressure;BME280_temperature;BME280_humidity;BME280_pressure;Samples;Min_cycle;Max_cycle;Signal;HPM_P1;HPM_P2
2022/11/27 00:00:46;;;;;;;;;;;;;;;;;;5070879;28;19916;-63
2022/11/27 00:03:11;;;;;;;;;;;;;;;;;;5070951;28;19912;-62
2022/11/27 00:05:36;;;;;;;;;;;;;;;;;;5063504;28;19982;-63
2022/11/27 00:08:01;;;;;;;;;;;;;;;;;;5067437;28;19913;-63
2022/11/27 00:10:27;;;;;;;;;;;;;;;;;;5070743;28;19924;-63
2022/11/27 00:12:52;;;;;;;;;;;;;;;;;;5067611;28;20285;-63
2022/11/27 00:15:17;;;;;;;;;;;;;;;;;;5068319;28;19965;-63
2022/11/27 00:17:42;;;;;;;;;;;;;;;;;;5073763;28;20280;-63
2022/11/27 00:20:07;;;;;;;;;;;;;;;;;;5062840;28;20003;-63
2022/11/27 00:22:33;;;;;;;;;;;;;;;;;;5058579;28;20315;-63
2022/11/27 00:25:01;;;;;;;;;;;;;;;;;;5062924;28;19924;-63
2022/11/27 00:27:26;;;;;;;;;;;;;;;;;;5078087;28;20443;-63
2022/11/27 00:29:51;;;;;;;;;;;;;;;;;;5073443;28;19999;-63
2022/11/27 00:32:16;;;;;;;;;;;;;;;;;;5071624;28;19965;-63
2022/11/27 00:34:41;;;;;;;;;;;;;;;;;;5082861;28;20373;-63
2022/11/27 00:37:07;;;;;;;;;;;;;;;;;;5071207;28;20397;-63
2022/11/27 00:39:32;;;;;;;;;;;;;;;;;;5066471;28;19913;-63
2022/11/27 00:41:57;;;;;;;;;;;;;;;;;;5062187;28;19923;-63
2022/11/27 00:44:22;;;;;;;;;;;;;;;;;;5064002;28;19917;-63
2022/11/27 00:46:47;;;;;;;;;;;;;;;;;;5069359;28;19922;-63
2022/11/27 00:49:12;;;;;;;;;;;;;;;;;;5070277;28;19962;-63
2022/11/27 00:51:37;;;;;;;;;;;;;;;;;;5069515;28;20018;-63
2022/11/27 00:54:03;;;;;;;;;;;;;;;;;;5064845;28;20453;-63
2022/11/27 00:56:28;;;;;;;;;;;;;;;;;;5068111;28;19928;-63
2022/11/27 00:58:53;;;;;;;;;;;;;;;;;;5073739;28;19913;-63
2022/11/27 01:01:18;;;;;;;;;;;;;;;;;;5068462;28;20298;-63
2022/11/27 01:03:44;;;;;;;;;;;;;;;;;;5075307;28;19947;-63
2022/11/27 01:06:09;;;;;;;;;;;;;;;;;;5074599;28;20288;-63
2022/11/27 01:08:34;;;;;;;;;;;;;;;;;;5069940;28;19952;-63
2022/11/27 01:10:59;;;;;;;;;;;;;;;;;;5068171;28;19920;-63
2022/11/27 01:13:24;;;;;;;;;;;;;;;;;;5071420;28;19932;-63
2022/11/27 01:15:49;;;;;;;;;;;;;;;;;;5071065;28;19916;-62
2022/11/27 01:18:14;;;;;;;;;;;;;;;;;;5072072;28;19908;-62
2022/11/27 01:20:40;;;;;;;;;;;;;;;;;;5065721;28;19913;-63
2022/11/27 01:23:05;;;;;;;;;;;;;;;;;;5059464;28;19952;-63
2022/11/27 01:25:30;;;;;;;;;;;;;;;;;;5066838;28;19928;-63
2022/11/27 01:27:55;;;;;;;;;;;;;;;;;;5075126;28;19912;-63
2022/11/27 01:30:20;;;;;;;;;;;;;;;;;;5072096;28;19986;-63
2022/11/27 01:32:45;;;;;;;;;;;;;;;;;;5073756;28;20331;-63
2022/11/27 01:35:10;;;;;;;;;;;;;;;;;;5073180;28;20288;-63
2022/11/27 01:37:35;;;;;;;;;;;;;;;;;;5070766;28;19995;-63
2022/11/27 01:40:01;;;;;;;;;;;;;;;;;;5072065;28;20304;-62
2022/11/27 01:42:26;;;;;;;;;;;;;;;;;;5072208;28;19918;-63
2022/11/27 01:44:51;;;;;;;;;;;;;;;;;;5072977;28;20420;-62
2022/11/27 01:47:16;;;;;;;;;;;;;;;;;;5066484;28;19913;-63
2022/11/27 01:49:41;;;;;;;;;;;;;;;;;;5069187;28;20373;-63
2022/11/27 01:52:06;;;;;;;;;;;;;;;;;;5073265;28;19913;-62
2022/11/27 01:54:31;;;;;;;;;;;;;;;;;;5064887;28;20474;-62
2022/11/27 01:56:57;;;;;;;;;;;;;;;;;;5066710;28;20119;-62
2022/11/27 01:59:22;;;;;;;;;;;;;;;;;;5070103;28;20376;-63
2022/11/27 02:01:47;;;;;;;;;;;;;;;;;;5075357;28;20007;-62
2022/11/27 02:04:12;;;;;;;;;;;;;;;;;;5070909;28;19920;-63
2022/11/27 02:06:37;;;;;;;;;;;;;;;;;;5072341;28;19917;-62
2022/11/27 02:09:02;;;;;;;;;;;;;;;;;;5063085;28;19919;-62
2022/11/27 02:11:28;;;;;;;;;;;;;;;;;;5069117;28;20397;-62
2022/11/27 02:13:53;;;;;;;;;;;;;;;;;;5072533;28;19960;-63
2022/11/27 02:16:18;;;;;;;;;;;;;;;;;;5075388;28;19927;-63
2022/11/27 02:18:43;;;;;;;;;;;;;;;;;;5069588;28;20270;-62
2022/11/27 02:21:08;;;;;;;;;;;;;;;;;;5065778;28;20007;-62
2022/11/27 02:23:33;;;;;;;;;;;;;;;;;;5065407;28;19966;-63
2022/11/27 02:25:59;;;;;;;;;;;;;;;;;;5064276;28;19927;-63
2022/11/27 02:28:24;;;;;;;;;;;;;;;;;;5067946;28;20036;-63
2022/11/27 02:30:49;;;;;;;;;;;;;;;;;;5073915;28;19916;-63
2022/11/27 02:33:14;;;;;;;;;;;;;;;;;;5071893;28;19913;-62
2022/11/27 02:35:39;;;;;;;;;;;;;;;;;;5070833;28;20011;-63
2022/11/27 02:38:04;;;;;;;;;;;;;;;;;;5068527;28;20289;-63
2022/11/27 02:40:30;;;;;;;;;;;;;;;;;;5065782;28;19912;-63
2022/11/27 02:42:55;;;;;;;;;;;;;;;;;;5070003;28;20380;-63
2022/11/27 02:45:21;;;;;;;;;;;;;;;;;;5071469;28;20007;-63
2022/11/27 02:47:46;;;;;;;;;;;;;;;;;;5069025;28;19913;-63
2022/11/27 02:50:11;;;;;;;;;;;;;;;;;;5068020;28;19912;-63
2022/11/27 02:52:36;;;;;;;;;;;;;;;;;;5069616;28;19923;-63
2022/11/27 02:55:01;;;;;;;;;;;;;;;;;;5087409;28;20011;-63
2022/11/27 02:57:26;;;;;;;;;;;;;;;;;;5070676;28;19923;-64
2022/11/27 02:59:53;;;;;;;;;;;;;;;;;;5070815;28;19919;-63
2022/11/27 03:02:18;;;;;;;;;;;;;;;;;;5069680;28;19913;-63
2022/11/27 03:04:43;;;;;;;;;;;;;;;;;;5058148;28;19995;-64
2022/11/27 03:07:08;;;;;;;;;;;;;;;;;;5070894;28;19963;-63
2022/11/27 03:09:33;;;;;;;;;;;;;;;;;;5071060;28;19935;-63
2022/11/27 03:11:58;;;;;;;;;;;;;;;;;;5076965;28;20002;-62
2022/11/27 03:14:24;;;;;;;;;;;;;;;;;;5071402;28;20422;-62
2022/11/27 03:16:49;;;;;;;;;;;;;;;;;;5073540;28;19916;-63
2022/11/27 03:19:14;;;;;;;;;;;;;;;;;;5070782;28;19916;-62
2022/11/27 03:21:39;;;;;;;;;;;;;;;;;;5067632;28;19951;-63
2022/11/27 03:24:04;;;;;;;;;;;;;;;;;;5069263;28;19921;-63
2022/11/27 03:26:29;;;;;;;;;;;;;;;;;;5068901;28;20422;-63
2022/11/27 03:28:54;;;;;;;;;;;;;;;;;;5067202;28;19920;-62
2022/11/27 03:31:20;;;;;;;;;;;;;;;;;;5072844;28;20151;-63
2022/11/27 03:33:45;;;;;;;;;;;;;;;;;;5075585;28;19965;-63
2022/11/27 03:36:10;;;;;;;;;;;;;;;;;;5076870;28;19916;-62
2022/11/27 03:38:35;;;;;;;;;;;;;;;;;;5068035;28;19913;-62
2022/11/27 03:41:00;;;;;;;;;;;;;;;;;;5060392;28;19944;-63
2022/11/27 03:43:26;;;;;;;;;;;;;;;;;;5069252;28;20003;-63
2022/11/27 03:45:51;;;;;;;;;;;;;;;;;;5070102;28;20050;-63
2022/11/27 03:48:16;;;;;;;;;;;;;;;;;;5063085;28;19917;-63
2022/11/27 03:50:41;;;;;;;;;;;;;;;;;;5070425;28;19916;-63
2022/11/27 03:53:06;;;;;;;;;;;;;;;;;;5069663;28;19948;-63
2022/11/27 03:55:31;;;;;;;;;;;;;;;;;;5070187;28;19916;-63
2022/11/27 03:57:56;;;;;;;;;;;;;;;;;;5069534;28;19913;-62
2022/11/27 04:00:22;;;;;;;;;;;;;;;;;;5071807;28;19941;-63
2022/11/27 04:02:47;;;;;;;;;;;;;;;;;;5069535;28;20280;-63
2022/11/27 04:05:12;;;;;;;;;;;;;;;;;;5066020;28;19919;-62
2022/11/27 04:07:37;;;;;;;;;;;;;;;;;;5070738;28;19919;-62
2022/11/27 04:10:02;;;;;;;;;;;;;;;;;;5072451;28;19920;-62
2022/11/27 04:12:27;;;;;;;;;;;;;;;;;;5069564;28;20350;-63
2022/11/27 04:14:52;;;;;;;;;;;;;;;;;;5074521;28;20254;-63
2022/11/27 04:17:18;;;;;;;;;;;;;;;;;;5082728;28;19924;-63
2022/11/27 04:19:43;;;;;;;;;;;;;;;;;;5070294;28;19916;-63
2022/11/27 04:22:08;;;;;;;;;;;;;;;;;;5074141;28;20062;-63
2022/11/27 04:24:33;;;;;;;;;;;;;;;;;;5066575;28;19920;-63
2022/11/27 04:26:58;;;;;;;;;;;;;;;;;;5062557;28;20293;-63
2022/11/27 04:29:23;;;;;;;;;;;;;;;;;;5063897;28;20003;-63
2022/11/27 04:31:48;;;;;;;;;;;;;;;;;;5082244;28;19912;-63
2022/11/27 04:34:14;;;;;;;;;;;;;;;;;;5070603;28;19910;-63
2022/11/27 04:36:39;;;;;;;;;;;;;;;;;;5073622;28;20300;-64
2022/11/27 04:39:04;;;;;;;;;;;;;;;;;;5065267;28;20352;-64
2022/11/27 04:41:29;;;;;;;;;;;;;;;;;;5080795;28;20369;-64
2022/11/27 04:43:54;;;;;;;;;;;;;;;;;;5075760;28;19908;-64
2022/11/27 04:46:20;;;;;;;;;;;;;;;;;;5074843;28;20007;-63
2022/11/27 04:48:45;;;;;;;;;;;;;;;;;;5074150;28;19947;-63
2022/11/27 04:51:10;;;;;;;;;;;;;;;;;;5074121;28;20019;-63
2022/11/27 04:53:36;;;;;;;;;;;;;;;;;;5074281;28;19908;-63
2022/11/27 04:56:01;;;;;;;;;;;;;;;;;;5076296;28;19970;-63
2022/11/27 04:58:26;;;;;;;;;;;;;;;;;;5071886;28;19974;-63
2022/11/27 05:00:51;;;;;;;;;;;;;;;;;;5071544;28;19912;-63
2022/11/27 05:03:16;;;;;;;;;;;;;;;;;;5073222;28;19916;-63
2022/11/27 05:05:42;;;;;;;;;;;;;;;;;;5070054;28;20376;-63
2022/11/27 05:08:07;;;;;;;;;;;;;;;;;;5087009;28;20431;-63
2022/11/27 05:10:32;;;;;;;;;;;;;;;;;;5072249;28;20361;-63
2022/11/27 05:12:57;;;;;;;;;;;;;;;;;;5074168;28;20365;-63
2022/11/27 05:15:22;;;;;;;;;;;;;;;;;;5072879;28;19912;-63
2022/11/27 05:17:47;;;;;;;;;;;;;;;;;;5076633;28;19912;-63
2022/11/27 05:20:13;;;;;;;;;;;;;;;;;;5072921;28;19912;-63
2022/11/27 05:22:38;;;;;;;;;;;;;;;;;;5072849;28;19987;-63
2022/11/27 05:25:03;;;;;;;;;;;;;;;;;;5072304;28;20441;-63
2022/11/27 05:27:28;;;;;;;;;;;;;;;;;;5068471;28;19920;-63
2022/11/27 05:29:53;;;;;;;;;;;;;;;;;;5071279;28;19919;-63
2022/11/27 05:32:18;;;;;;;;;;;;;;;;;;5071509;28;19916;-63
2022/11/27 05:34:44;;;;;;;;;;;;;;;;;;5081220;28;19908;-63
2022/11/27 05:37:11;;;;;;;;;;;;;;;;;;5065455;28;19925;-62
2022/11/27 05:39:36;;;;;;;;;;;;;;;;;;5086689;28;19954;-62
2022/11/27 05:42:02;;;;;;;;;;;;;;;;;;5072413;28;19917;-62
2022/11/27 05:44:27;;;;;;;;;;;;;;;;;;5072394;28;19960;-63
2022/11/27 05:46:52;;;;;;;;;;;;;;;;;;5072079;28;19962;-63
2022/11/27 05:49:17;;;;;;;;;;;;;;;;;;5070517;28;20397;-62
2022/11/27 05:51:42;;;;;;;;;;;;;;;;;;5068240;28;19999;-63
2022/11/27 05:54:07;;;;;;;;;;;;;;;;;;5069743;28;19912;-64
2022/11/27 05:56:32;;;;;;;;;;;;;;;;;;5071362;28;19920;-64
2022/11/27 05:58:58;;;;;;;;;;;;;;;;;;5067624;28;20339;-63
2022/11/27 06:01:23;;;;;;;;;;;;;;;;;;5064416;28;19919;-64
2022/11/27 06:03:48;;;;;;;;;;;;;;;;;;5071054;28;19986;-63
2022/11/27 06:06:13;;;;;;;;;;;;;;;;;;5067687;28;19913;-63
2022/11/27 06:08:38;;;;;;;;;;;;;;;;;;5079262;28;19955;-63
2022/11/27 06:11:03;;;;;;;;;;;;;;;;;;5073106;28;19913;-63
2022/11/27 06:13:28;;;;;;;;;;;;;;;;;;5072515;28;19970;-62
2022/11/27 06:15:54;;;;;;;;;;;;;;;;;;5087632;28;19916;-63
2022/11/27 06:18:19;;;;;;;;;;;;;;;;;;5069389;28;20000;-63
2022/11/27 06:20:45;;;;;;;;;;;;;;;;;;5070894;28;19912;-62
2022/11/27 06:23:10;;;;;;;;;;;;;;;;;;5086256;28;20399;-62
2022/11/27 06:25:36;;;;;;;;;;;;;;;;;;5071609;28;20003;-63
2022/11/27 06:28:01;;;;;;;;;;;;;;;;;;5077481;28;19924;-63
2022/11/27 06:30:26;;;;;;;;;;;;;;;;;;5067718;28;19913;-63
2022/11/27 06:32:51;;;;;;;;;;;;;;;;;;5071399;28;19927;-63
2022/11/27 06:35:16;;;;;;;;;;;;;;;;;;5088494;28;20273;-63
2022/11/27 06:37:41;;;;;;;;;;;;;;;;;;5064829;28;19913;-63
2022/11/27 06:40:06;;;;;;;;;;;;;;;;;;5066384;28;19923;-63
2022/11/27 06:42:31;;;;;;;;;;;;;;;;;;5063456;28;19912;-63
2022/11/27 06:44:57;;;;;;;;;;;;;;;;;;5072325;28;19920;-63
2022/11/27 06:47:22;;;;;;;;;;;;;;;;;;5062825;28;20399;-62
2022/11/27 06:49:47;;;;;;;;;;;;;;;;;;5065910;28;19916;-63
2022/11/27 06:52:12;;;;;;;;;;;;;;;;;;5074758;28;20320;-63
2022/11/27 06:54:37;;;;;;;;;;;;;;;;;;5074764;28;19946;-63
2022/11/27 06:57:08;;;;;;;;;;;;;;;;;;5069495;28;20353;-63
2022/11/27 06:59:33;;;;;;;;;;;;;;;;;;5068912;28;19916;-63
2022/11/27 07:01:58;;;;;;;;;;;;;;;;;;5071479;28;19934;-63
2022/11/27 07:04:24;;;;;;;;;;;;;;;;;;5070236;28;19948;-64
2022/11/27 07:06:49;;;;;;;;;;;;;;;;;;5071637;28;19962;-64
2022/11/27 07:09:14;;;;;;;;;;;;;;;;;;5069076;28;20369;-63
2022/11/27 07:11:39;;;;;;;;;;;;;;;;;;5067240;28;19921;-63
2022/11/27 07:14:04;;;;;;;;;;;;;;;;;;5066700;28;20342;-63
2022/11/27 07:16:29;;;;;;;;;;;;;;;;;;5069975;28;19920;-64
2022/11/27 07:18:54;;;;;;;;;;;;;;;;;;5071043;28;19939;-63
2022/11/27 07:21:20;;;;;;;;;;;;;;;;;;5069454;28;19955;-63
2022/11/27 07:23:45;;;;;;;;;;;;;;;;;;5082424;28;20014;-64
2022/11/27 07:26:10;;;;;;;;;;;;;;;;;;5066650;28;20009;-63
2022/11/27 07:28:35;;;;;;;;;;;;;;;;;;5069462;28;20030;-63
2022/11/27 07:31:00;;;;;;;;;;;;;;;;;;5072030;28;19912;-63
2022/11/27 07:33:25;;;;;;;;;;;;;;;;;;5075842;28;20014;-63
2022/11/27 07:35:51;;;;;;;;;;;;;;;;;;5071117;28;19963;-63
2022/11/27 07:38:16;;;;;;;;;;;;;;;;;;5083759;28;20376;-63
2022/11/27 07:40:41;;;;;;;;;;;;;;;;;;5067421;28;20019;-64
2022/11/27 07:43:06;;;;;;;;;;;;;;;;;;5067653;28;19913;-64
2022/11/27 07:45:31;;;;;;;;;;;;;;;;;;5064902;28;20332;-63
2022/11/27 07:47:56;;;;;;;;;;;;;;;;;;5070837;28;19924;-63
2022/11/27 07:50:21;;;;;;;;;;;;;;;;;;5069362;28;19962;-63
2022/11/27 07:52:47;;;;;;;;;;;;;;;;;;5067148;28;19959;-64
2022/11/27 07:55:12;;;;;;;;;;;;;;;;;;5063238;28;19921;-64
2022/11/27 07:57:37;;;;;;;;;;;;;;;;;;5069563;28;19913;-64
2022/11/27 08:00:02;;;;;;;;;;;;;;;;;;5064491;28;19927;-63
2022/11/27 08:02:27;;;;;;;;;;;;;;;;;;5070478;28;19917;-63
2022/11/27 08:04:52;;;;;;;;;;;;;;;;;;5068850;28;19912;-63
2022/11/27 08:07:17;;;;;;;;;;;;;;;;;;5069696;28;19912;-63
2022/11/27 08:09:43;;;;;;;;;;;;;;;;;;5070461;28;19962;-64
2022/11/27 08:12:08;;;;;;;;;;;;;;;;;;5075785;28;20299;-63
2022/11/27 08:14:33;;;;;;;;;;;;;;;;;;5066103;28;20405;-63
2022/11/27 08:16:58;;;;;;;;;;;;;;;;;;5072971;28;20360;-63
2022/11/27 08:19:23;;;;;;;;;;;;;;;;;;5073251;28;19916;-63
2022/11/27 08:21:48;;;;;;;;;;;;;;;;;;5063655;28;19921;-62
2022/11/27 08:24:14;;;;;;;;;;;;;;;;;;5069558;28;19921;-63
2022/11/27 08:26:39;;;;;;;;;;;;;;;;;;5073679;28;19935;-63
2022/11/27 08:29:05;;;;;;;;;;;;;;;;;;5068702;28;20248;-64
2022/11/27 08:31:30;;;;;;;;;;;;;;;;;;5069114;28;19919;-63
2022/11/27 08:33:55;;;;;;;;;;;;;;;;;;5068805;28;19913;-63
2022/11/27 08:36:21;;;;;;;;;;;;;;;;;;5070249;28;19920;-63
2022/11/27 08:38:46;;;;;;;;;;;;;;;;;;5073477;28;19998;-63
2022/11/27 08:41:11;;;;;;;;;;;;;;;;;;5073602;28;19916;-63
2022/11/27 08:43:37;;;;;;;;;;;;;;;;;;5062554;28;19908;-63
2022/11/27 08:46:02;;;;;;;;;;;;;;;;;;5069177;28;20394;-63
2022/11/27 08:48:27;;;;;;;;;;;;;;;;;;5075105;28;19920;-62
2022/11/27 08:50:52;;;;;;;;;;;;;;;;;;5074666;28;19909;-63
2022/11/27 08:53:17;;;;;;;;;;;;;;;;;;5072970;28;20380;-63
2022/11/27 08:55:42;;;;;;;;;;;;;;;;;;5067963;28;19912;-63
2022/11/27 08:58:07;;;;;;;;;;;;;;;;;;5070232;28;19919;-64
2022/11/27 09:00:35;;;;;;;;;;;;;;;;;;5065692;28;20341;-64
2022/11/27 09:03:00;;;;;;;;;;;;;;;;;;5065623;28;19943;-64
2022/11/27 09:05:25;;;;;;;;;;;;;;;;;;5073902;28;20377;-63
2022/11/27 09:07:50;;;;;;;;;;;;;;;;;;5069416;28;19951;-63
2022/11/27 09:10:15;;;;;;;;;;;;;;;;;;5061153;28;19920;-64
2022/11/27 09:12:43;;;;;;;;;;;;;;;;;;5064110;28;20035;-63
2022/11/27 09:15:08;;;;;;;;;;;;;;;;;;5087065;28;19912;-63
2022/11/27 09:17:33;;;;;;;;;;;;;;;;;;5065751;28;20284;-64
2022/11/27 09:19:58;;;;;;;;;;;;;;;;;;5061081;28;20293;-64
2022/11/27 09:22:24;;;;;;;;;;;;;;;;;;5060937;28;19913;-63
2022/11/27 09:24:49;;;;;;;;;;;;;;;;;;5066676;28;20022;-63
2022/11/27 09:27:14;;;;;;;;;;;;;;;;;;5070656;28;19912;-63
2022/11/27 09:29:39;;;;;;;;;;;;;;;;;;5069336;28;20431;-63
2022/11/27 09:32:04;;;;;;;;;;;;;;;;;;5062470;28;20284;-62
2022/11/27 09:34:29;;;;;;;;;;;;;;;;;;5063004;28;19912;-63
2022/11/27 09:36:54;;;;;;;;;;;;;;;;;;5081072;28;20292;-63
2022/11/27 09:39:20;;;;;;;;;;;;;;;;;;5082831;28;20080;-63
2022/11/27 09:41:45;;;;;;;;;;;;;;;;;;5059277;28;20370;-63
2022/11/27 09:44:10;;;;;;;;;;;;;;;;;;5066054;28;20248;-63
2022/11/27 09:46:35;;;;;;;;;;;;;;;;;;5078697;28;19912;-63
2022/11/27 09:49:00;;;;;;;;;;;;;;;;;;5070052;28;19920;-63
2022/11/27 09:51:25;;;;;;;;;;;;;;;;;;5057063;28;19921;-63
2022/11/27 09:53:51;;;;;;;;;;;;;;;;;;5079612;28;19916;-63
2022/11/27 09:56:16;;;;;;;;;;;;;;;;;;5078211;28;19923;-63
2022/11/27 09:58:41;;;;;;;;;;;;;;;;;;5067560;28;19913;-64
2022/11/27 10:01:06;;;;;;;;;;;;;;;;;;5070990;28;19913;-63
2022/11/27 10:03:31;;;;;;;;;;;;;;;;;;5065760;28;19912;-64
2022/11/27 10:05:56;;;;;;;;;;;;;;;;;;5068744;28;20327;-64
2022/11/27 10:08:22;;;;;;;;;;;;;;;;;;5065662;28;19927;-64
2022/11/27 10:10:47;;;;;;;;;;;;;;;;;;5063741;28;20274;-63
2022/11/27 10:13:12;;;;;;;;;;;;;;;;;;5070359;28;20278;-63
2022/11/27 10:15:37;;;;;;;;;;;;;;;;;;5063358;28;20353;-63
2022/11/27 10:18:02;;;;;;;;;;;;;;;;;;5064921;28;19974;-63
2022/11/27 10:20:28;;;;;;;;;;;;;;;;;;5065251;28;19927;-64
2022/11/27 10:22:53;;;;;;;;;;;;;;;;;;5062787;28;19959;-63
2022/11/27 10:25:19;;;;;;;;;;;;;;;;;;5066693;28;20294;-63
2022/11/27 10:27:44;;;;;;;;;;;;;;;;;;5067221;28;19927;-64
2022/11/27 10:30:09;;;;;;;;;;;;;;;;;;5067039;28;19940;-63
2022/11/27 10:32:35;;;;;;;;;;;;;;;;;;5065850;28;19913;-64
2022/11/27 10:35:00;;;;;;;;;;;;;;;;;;5084086;28;19920;-63
2022/11/27 10:37:25;;;;;;;;;;;;;;;;;;5067543;28;20442;-64
2022/11/27 10:39:51;;;;;;;;;;;;;;;;;;5068218;28;20432;-62
2022/11/27 10:42:16;;;;;;;;;;;;;;;;;;5070056;28;20273;-64
2022/11/27 10:44:41;;;;;;;;;;;;;;;;;;5067673;28;19935;-64
2022/11/27 10:47:07;;;;;;;;;;;;;;;;;;5066424;28;19912;-65
2022/11/27 10:49:32;;;;;;;;;;;;;;;;;;5070078;28;20545;-63
2022/11/27 10:51:57;;;;;;;;;;;;;;;;;;5069417;28;19951;-63
2022/11/27 10:54:22;;;;;;;;;;;;;;;;;;5068947;28;19920;-63
2022/11/27 10:56:47;;;;;;;;;;;;;;;;;;5067011;28;20363;-63
2022/11/27 10:59:12;;;;;;;;;;;;;;;;;;5068165;28;19920;-63
2022/11/27 11:01:37;;;;;;;;;;;;;;;;;;5062615;28;20305;-62
2022/11/27 11:04:03;;;;;;;;;;;;;;;;;;5069194;28;19912;-63
2022/11/27 11:06:28;;;;;;;;;;;;;;;;;;5069174;28;19912;-63
2022/11/27 11:08:53;;;;;;;;;;;;;;;;;;5068941;28;19980;-63
2022/11/27 11:11:18;;;;;;;;;;;;;;;;;;5067780;28;20279;-63
2022/11/27 11:13:44;;;;;;;;;;;;;;;;;;5063644;28;19913;-63
2022/11/27 11:16:10;;;;;;;;;;;;;;;;;;5067130;28;20352;-63
2022/11/27 11:18:35;;;;;;;;;;;;;;;;;;5068822;28;20010;-65
2022/11/27 11:21:00;;;;;;;;;;;;;;;;;;5061902;28;19920;-63
2022/11/27 11:23:25;;;;;;;;;;;;;;;;;;5062661;28;19916;-64
2022/11/27 11:25:51;;;;;;;;;;;;;;;;;;5064779;28;19931;-63
2022/11/27 11:28:16;;;;;;;;;;;;;;;;;;5062880;28;19912;-63
2022/11/27 11:30:41;;;;;;;;;;;;;;;;;;5064698;28;19956;-64
2022/11/27 11:33:06;;;;;;;;;;;;;;;;;;5069392;28;20355;-64
2022/11/27 11:35:33;;;;;;;;;;;;;;;;;;5068121;28;20292;-63
2022/11/27 11:38:00;;;;;;;;;;;;;;;;;;5069632;28;20288;-63
2022/11/27 11:40:25;;;;;;;;;;;;;;;;;;5065403;28;19912;-63
2022/11/27 11:42:50;;;;;;;;;;;;;;;;;;5063092;28;19916;-64
2022/11/27 11:45:15;;;;;;;;;;;;;;;;;;5067713;28;19935;-64
2022/11/27 11:47:40;;;;;;;;;;;;;;;;;;5068096;28;20011;-65
2022/11/27 11:50:05;;;;;;;;;;;;;;;;;;5067966;28;19916;-65
2022/11/27 11:52:31;;;;;;;;;;;;;;;;;;5068672;28;19912;-65
2022/11/27 11:54:56;;;;;;;;;;;;;;;;;;5066228;28;19913;-65
2022/11/27 11:57:21;;;;;;;;;;;;;;;;;;5062336;28;19921;-64
2022/11/27 11:59:46;;;;;;;;;;;;;;;;;;5063555;28;19913;-62
2022/11/27 12:02:11;;;;;;;;;;;;;;;;;;5062191;28;20016;-64
2022/11/27 12:04:36;;;;;;;;;;;;;;;;;;5066761;28;19912;-64
2022/11/27 12:07:02;;;;;;;;;;;;;;;;;;5066251;28;19924;-64
2022/11/27 12:09:27;;;;;;;;;;;;;;;;;;5065825;28;19916;-64
2022/11/27 12:11:52;;;;;;;;;;;;;;;;;;5081621;28;19920;-64
2022/11/27 12:14:17;;;;;;;;;;;;;;;;;;5067288;28;20447;-64
2022/11/27 12:16:44;;;;;;;;;;;;;;;;;;5064886;28;19924;-64
2022/11/27 12:19:09;;;;;;;;;;;;;;;;;;5067333;28;20031;-64
2022/11/27 12:21:34;;;;;;;;;;;;;;;;;;5068771;28;20385;-64
2022/11/27 12:24:00;;;;;;;;;;;;;;;;;;5068472;28;20180;-64
2022/11/27 12:26:25;;;;;;;;;;;;;;;;;;5066693;28;20004;-64
2022/11/27 12:28:50;;;;;;;;;;;;;;;;;;5062941;28;19920;-64
2022/11/27 12:31:15;;;;;;;;;;;;;;;;;;5069078;28;19912;-64
2022/11/27 12:33:40;;;;;;;;;;;;;;;;;;5067815;28;19919;-64
2022/11/27 12:36:05;;;;;;;;;;;;;;;;;;5063579;28;20073;-64
2022/11/27 12:38:31;;;;;;;;;;;;;;;;;;5064705;28;19959;-64
2022/11/27 12:40:56;;;;;;;;;;;;;;;;;;5068271;28;19919;-64
2022/11/27 12:43:21;;;;;;;;;;;;;;;;;;5066362;28;19917;-64
2022/11/27 12:45:46;;;;;;;;;;;;;;;;;;5064333;28;19931;-65
2022/11/27 12:48:11;;;;;;;;;;;;;;;;;;5066053;28;19916;-67
2022/11/27 12:50:36;;;;;;;;;;;;;;;;;;5075878;28;20010;-69
2022/11/27 12:53:01;;;;;;;;;;;;;;;;;;5082261;28;19908;-65
2022/11/27 12:55:27;;;;;;;;;;;;;;;;;;5070008;28;19955;-65
2022/11/27 12:57:52;;;;;;;;;;;;;;;;;;5073391;28;19920;-65
2022/11/27 13:00:17;;;;;;;;;;;;;;;;;;5072588;28;19917;-65
2022/11/27 13:02:42;;;;;;;;;;;;;;;;;;5070242;28;20255;-67
2022/11/27 13:05:08;;;;;;;;;;;;;;;;;;5072228;28;19950;-72
2022/11/27 13:07:37;;;;;;;;;;;;;;;;;;5072088;28;19916;-67
2022/11/27 13:10:02;;;;;;;;;;;;;;;;;;5071911;28;19967;-64
2022/11/27 13:12:27;;;;;;;;;;;;;;;;;;5068351;28;19913;-65
2022/11/27 13:14:52;;;;;;;;;;;;;;;;;;5068662;28;20005;-65
2022/11/27 13:17:18;;;;;;;;;;;;;;;;;;5064689;28;20354;-65
2022/11/27 13:19:43;;;;;;;;;;;;;;;;;;5067121;28;19912;-65
2022/11/27 13:22:08;;;;;;;;;;;;;;;;;;5070161;28;19946;-65
2022/11/27 13:24:33;;;;;;;;;;;;;;;;;;5068046;28;19924;-62
2022/11/27 13:26:59;;;;;;;;;;;;;;;;;;5070094;28;19992;-65
2022/11/27 13:29:24;;;;;;;;;;;;;;;;;;5069189;28;20373;-65
2022/11/27 13:31:50;;;;;;;;;;;;;;;;;;5073788;28;19913;-64
2022/11/27 13:34:15;;;;;;;;;;;;;;;;;;5067019;28;19954;-64
2022/11/27 13:36:40;;;;;;;;;;;;;;;;;;5068969;28;20408;-65
2022/11/27 13:39:05;;;;;;;;;;;;;;;;;;5068383;28;19913;-64
2022/11/27 13:41:30;;;;;;;;;;;;;;;;;;5068781;28;19920;-67
2022/11/27 13:43:56;;;;;;;;;;;;;;;;;;5068836;28;20321;-64
2022/11/27 13:46:21;;;;;;;;;;;;;;;;;;5068632;28;19971;-64
2022/11/27 13:48:46;;;;;;;;;;;;;;;;;;5059783;28;20381;-65
2022/11/27 13:51:11;;;;;;;;;;;;;;;;;;5064645;28;20369;-65
2022/11/27 13:53:36;;;;;;;;;;;;;;;;;;5069858;28;19919;-65
2022/11/27 13:56:02;;;;;;;;;;;;;;;;;;5070187;28;20339;-65
2022/11/27 13:58:27;;;;;;;;;;;;;;;;;;5066664;28;19917;-65
2022/11/27 14:00:52;;;;;;;;;;;;;;;;;;5069868;28;20460;-65
2022/11/27 14:03:17;;;;;;;;;;;;;;;;;;5069081;28;19958;-66
2022/11/27 14:05:42;;;;;;;;;;;;;;;;;;5065954;28;19916;-64
2022/11/27 14:08:07;;;;;;;;;;;;;;;;;;5065966;28;19958;-63
2022/11/27 14:10:32;;;;;;;;;;;;;;;;;;5068066;28;20327;-64
2022/11/27 14:12:59;;;;;;;;;;;;;;;;;;5066005;28;19912;-64
2022/11/27 14:15:25;;;;;;;;;;;;;;;;;;5068107;28;19920;-63
2022/11/27 14:17:50;;;;;;;;;;;;;;;;;;5068051;28;20276;-65
2022/11/27 14:20:15;;;;;;;;;;;;;;;;;;5067690;28;20326;-64
2022/11/27 14:22:41;;;;;;;;;;;;;;;;;;5068039;28;19920;-64
2022/11/27 14:25:06;;;;;;;;;;;;;;;;;;5068154;28;19992;-63
2022/11/27 14:27:31;;;;;;;;;;;;;;;;;;5070279;28;19919;-64
2022/11/27 14:29:56;;;;;;;;;;;;;;;;;;5076925;28;19912;-66
2022/11/27 14:32:22;;;;;;;;;;;;;;;;;;5069480;28;19912;-66
2022/11/27 14:34:47;;;;;;;;;;;;;;;;;;5070088;28;19919;-65
2022/11/27 14:37:12;;;;;;;;;;;;;;;;;;5067612;28;19925;-70
2022/11/27 14:39:37;;;;;;;;;;;;;;;;;;5082047;28;19943;-66
2022/11/27 14:42:03;;;;;;;;;;;;;;;;;;5080731;28;19913;-65
2022/11/27 14:44:28;;;;;;;;;;;;;;;;;;5059170;28;19982;-65
2022/11/27 14:46:53;;;;;;;;;;;;;;;;;;5085117;28;20094;-64
2022/11/27 14:49:18;;;;;;;;;;;;;;;;;;5069504;28;19920;-67
2022/11/27 14:51:43;;;;;;;;;;;;;;;;;;5069756;28;19912;-68
2022/11/27 14:54:08;;;;;;;;;;;;;;;;;;5068751;28;19952;-64
2022/11/27 14:56:33;;;;;;;;;;;;;;;;;;5070291;28;19956;-63
2022/11/27 14:58:59;;;;;;;;;;;;;;;;;;5064299;28;19916;-64
2022/11/27 15:01:24;;;;;;;;;;;;;;;;;;5057228;28;19923;-65
2022/11/27 15:03:49;;;;;;;;;;;;;;;;;;5068480;28;20069;-65
2022/11/27 15:06:14;;;;;;;;;;;;;;;;;;5069127;28;20292;-65
2022/11/27 15:08:39;;;;;;;;;;;;;;;;;;5070212;28;20341;-66
2022/11/27 15:11:04;;;;;;;;;;;;;;;;;;5064029;28;19915;-66
2022/11/27 15:13:29;;;;;;;;;;;;;;;;;;5069005;28;20288;-65
2022/11/27 15:15:55;;;;;;;;;;;;;;;;;;5068675;28;19934;-64
2022/11/27 15:18:21;;;;;;;;;;;;;;;;;;5065310;28;20134;-67
2022/11/27 15:20:46;;;;;;;;;;;;;;;;;;5094161;28;20390;-65
2022/11/27 15:23:11;;;;;;;;;;;;;;;;;;5061903;28;19999;-69
2022/11/27 15:25:36;;;;;;;;;;;;;;;;;;5065653;28;19928;-66
2022/11/27 15:28:02;;;;;;;;;;;;;;;;;;5065400;28;20370;-68
2022/11/27 15:30:27;;;;;;;;;;;;;;;;;;5068315;28;19948;-69
2022/11/27 15:32:52;;;;;;;;;;;;;;;;;;5066694;28;19921;-69
2022/11/27 15:35:17;;;;;;;;;;;;;;;;;;5065496;28;19912;-65
2022/11/27 15:37:42;;;;;;;;;;;;;;;;;;5067302;28;20326;-66
2022/11/27 15:40:07;;;;;;;;;;;;;;;;;;5063365;28;20288;-65
2022/11/27 15:42:32;;;;;;;;;;;;;;;;;;5061214;28;20272;-65
2022/11/27 15:44:58;;;;;;;;;;;;;;;;;;5066952;28;19912;-62
2022/11/27 15:47:23;;;;;;;;;;;;;;;;;;5069394;28;19998;-63
2022/11/27 15:49:48;;;;;;;;;;;;;;;;;;5067380;28;19949;-62
2022/11/27 15:52:13;;;;;;;;;;;;;;;;;;5064100;28;19909;-64
2022/11/27 15:54:38;;;;;;;;;;;;;;;;;;5064001;28;19993;-64
2022/11/27 15:57:04;;;;;;;;;;;;;;;;;;5068698;28;19917;-61
2022/11/27 15:59:29;;;;;;;;;;;;;;;;;;5065528;28;19920;-63
2022/11/27 16:01:55;;;;;;;;;;;;;;;;;;5067880;28;19925;-62
2022/11/27 16:04:21;;;;;;;;;;;;;;;;;;5073709;28;20393;-64
2022/11/27 16:12:05;;;;;;;;;;;;;;;;;;5018004;28;20009;-79
2022/11/27 16:14:30;;;;;;;;;;;;;;;;;;5068246;28;19964;-86
2022/11/27 16:16:55;;;;;;;;;;;;;;;;;;5068521;28;19923;-79
2022/11/27 16:19:20;;;;;;;;;;;;;;;;;;5068766;28;19931;-78
2022/11/27 16:21:45;;;;;;;;;;;;;;;;;;5070982;28;19920;-78
2022/11/27 16:24:11;;;;;;;;;;;;;;;;;;5070440;28;19908;-79
2022/11/27 16:26:36;;;;;;;;;;;;;;;;;;5065056;28;19955;-78
2022/11/27 16:29:02;;;;;;;;;;;;;;;;;;5064014;28;19916;-79
2022/11/27 16:31:27;;;;;;;;;;;;;;;;;;5071404;28;19978;-78
2022/11/27 16:33:52;;;;;;;;;;;;;;;;;;5071039;28;19991;-78
2022/11/27 16:36:17;;;;;;;;;;;;;;;;;;5063515;28;20392;-80